Time;durP1;ratioP1;P1;durP2;ratioP2;P2;SDS_P1;SDS_P2;PMS_P1;PMS_P2;Temp;Humidity;BMP_temperature;BMP_pressure;BME280_temperature;BME280_humidity;BME280_pressure;Samples;Min_cycle;Max_cycle;Signal;HPM_P1;HPM_P2
2021/12/09 00:00:28;;;;;;;28.23;5.85;;;;;;;-0.28;100.00;99745.19;5036958;28;20494;-82
2021/12/09 00:02:53;;;;;;;;;;;;;;;-0.09;100.00;99770.88;5024500;28;20087;-82
2021/12/09 00:05:19;;;;;;;19.48;6.78;;;;;;;-0.25;100.00;99771.34;5012603;28;20597;-82
2021/12/09 00:07:49;;;;;;;17.60;5.22;;;;;;;-0.44;100.00;99766.78;5039613;28;20498;-83
2021/12/09 00:10:15;;;;;;;29.33;5.82;;;;;;;-0.59;100.00;99766.25;5004232;28;20041;-82
2021/12/09 00:12:41;;;;;;;24.95;6.00;;;;;;;-0.81;100.00;99764.59;5036508;28;20525;-82
2021/12/09 00:15:07;;;;;;;27.33;5.68;;;;;;;-1.00;100.00;99754.72;5014352;28;20041;-82
2021/12/09 00:17:33;;;;;;;45.33;9.65;;;;;;;-1.08;100.00;99756.31;5024668;28;20041;-82
2021/12/09 00:19:59;;;;;;;29.05;7.75;;;;;;;-1.12;100.00;99761.81;5008014;28;20044;-84
2021/12/09 00:22:25;;;;;;;27.45;6.05;;;;;;;-1.13;100.00;99754.06;5022727;28;20052;-83
2021/12/09 00:24:51;;;;;;;23.25;6.10;;;;;;;-1.13;100.00;99760.16;5030384;28;20151;-82
2021/12/09 00:27:17;;;;;;;6.28;3.30;;;;;;;-1.10;100.00;99759.06;5050352;28;20033;-82
2021/12/09 00:29:43;;;;;;;9.70;5.53;;;;;;;-0.93;100.00;99760.31;5024343;28;20099;-81
2021/12/09 00:32:08;;;;;;;21.85;6.60;;;;;;;-1.03;100.00;99754.97;5022349;28;20262;-82
2021/12/09 00:34:36;;;;;;;23.30;7.20;;;;;;;-1.39;100.00;99733.28;5039880;28;20037;-82
2021/12/09 00:40:00;;;;;;;22.55;5.55;;;;;;;-1.56;100.00;99739.09;5037529;28;20044;-82
2021/12/09 00:42:27;;;;;;;21.45;6.28;;;;;;;-1.52;100.00;99756.31;5027003;28;20086;-83
2021/12/09 00:44:54;;;;;;;21.17;6.28;;;;;;;-1.90;100.00;99710.16;5013384;28;20040;-82
2021/12/09 00:47:21;;;;;;;19.23;5.50;;;;;;;-1.86;100.00;99744.97;5021770;28;20033;-82
2021/12/09 00:49:47;;;;;;;14.38;5.07;;;;;;;-2.12;100.00;99712.78;5007988;28;20086;-83
2021/12/09 00:52:13;;;;;;;15.63;5.68;;;;;;;-1.96;100.00;99720.31;5030146;28;20024;-82
2021/12/09 00:54:41;;;;;;;19.90;6.70;;;;;;;-1.78;100.00;99732.03;5032455;28;20048;-82
2021/12/09 00:57:07;;;;;;;18.17;6.78;;;;;;;-1.83;100.00;99732.41;5040693;28;20446;-83
2021/12/09 00:59:32;;;;;;;21.65;6.72;;;;;;;-1.85;100.00;99721.16;5018647;28;20124;-82
2021/12/09 01:01:58;;;;;;;28.52;9.77;;;;;;;-1.80;100.00;99718.13;5012057;28;20039;-84
2021/12/09 01:04:24;;;;;;;17.70;6.55;;;;;;;-1.83;100.00;99721.03;5029403;28;20052;-82
2021/12/09 01:06:50;;;;;;;19.17;5.35;;;;;;;-1.96;100.00;99701.88;5036874;28;20216;-83
2021/12/09 01:09:17;;;;;;;13.18;3.97;;;;;;;-1.76;100.00;99730.13;5030230;28;20052;-82
2021/12/09 01:11:42;;;;;;;19.35;4.47;;;;;;;-1.62;100.00;99727.22;5047556;28;20029;-83
2021/12/09 01:14:08;;;;;;;17.85;4.55;;;;;;;-1.55;100.00;99722.28;5013050;28;20490;-82
2021/12/09 01:16:34;;;;;;;15.27;4.38;;;;;;;-1.56;100.00;99724.09;5020534;28;20037;-83
2021/12/09 01:18:59;;;;;;;16.45;4.38;;;;;;;-1.48;100.00;99702.41;5030162;28;20051;-82
2021/12/09 01:21:25;;;;;;;19.80;6.13;;;;;;;-1.11;100.00;99742.41;5028592;28;20053;-82
2021/12/09 01:23:51;;;;;;;22.75;6.00;;;;;;;-0.99;100.00;99742.38;5015589;28;20036;-82
2021/12/09 01:26:17;;;;;;;21.70;6.43;;;;;;;-0.83;100.00;99747.19;5023162;28;20033;-83
2021/12/09 01:28:54;;;;;;;23.20;7.13;;;;;;;-0.80;100.00;99750.41;5037786;28;20033;-82
2021/12/09 01:31:27;;;;;;;29.55;7.10;;;;;;;-0.94;100.00;99748.94;5044398;28;20525;-85
2021/12/09 01:33:54;;;;;;;17.48;5.63;;;;;;;-1.12;100.00;99729.34;5021587;28;20067;-82
2021/12/09 01:36:20;;;;;;;23.27;6.35;;;;;;;-1.35;100.00;99720.66;5057921;28;20048;-82
2021/12/09 01:38:46;;;;;;;21.25;6.15;;;;;;;-1.37;100.00;99736.63;5033540;28;20029;-82
2021/12/09 01:41:12;;;;;;;20.42;6.35;;;;;;;-1.50;100.00;99717.50;5024919;28;20589;-82
2021/12/09 01:43:38;;;;;;;14.05;4.32;;;;;;;-1.46;100.00;99700.44;5027697;28;20029;-83
2021/12/09 01:46:05;;;;;;;24.85;5.68;;;;;;;-1.30;100.00;99709.75;5017411;28;20315;-82
2021/12/09 01:48:31;;;;;;;24.88;5.53;;;;;;;-1.22;100.00;99723.97;5051376;28;20025;-82
2021/12/09 01:50:57;;;;;;;18.80;4.93;;;;;;;-1.27;100.00;99717.41;5020431;28;20059;-83
2021/12/09 01:53:23;;;;;;;20.58;4.65;;;;;;;-1.34;100.00;99715.28;5032996;28;20029;-82
2021/12/09 01:55:49;;;;;;;14.77;4.70;;;;;;;-1.32;100.00;99715.16;5052797;28;20041;-84
2021/12/09 01:58:15;;;;;;;12.07;5.10;;;;;;;-1.21;100.00;99709.00;5034131;28;20045;-83
2021/12/09 02:00:40;;;;;;;15.40;5.07;;;;;;;-1.28;100.00;99686.72;5044398;28;20044;-83
2021/12/09 02:03:06;;;;;;;11.02;3.78;;;;;;;-0.85;100.00;99714.81;5042395;28;20024;-83
2021/12/09 02:05:33;;;;;;;14.40;4.30;;;;;;;-0.53;100.00;99731.44;5036330;28;20048;-84
2021/12/09 02:07:59;;;;;;;14.00;2.67;;;;;;;-0.26;100.00;99733.53;5057389;28;20513;-82
2021/12/09 02:10:25;;;;;;;12.10;2.03;;;;;;;-0.11;100.00;99701.47;5037479;28;20055;-82
2021/12/09 02:12:52;;;;;;;20.73;2.22;;;;;;;0.43;100.00;99718.75;5034467;28;20028;-84
2021/12/09 02:15:21;;;;;;;4.00;1.48;;;;;;;0.92;100.00;99726.72;5036478;28;20052;-83
2021/12/09 02:17:47;;;;;;;16.63;2.58;;;;;;;0.99;100.00;99685.50;5020437;28;20040;-84
2021/12/09 02:20:13;;;;;;;12.32;2.38;;;;;;;1.46;100.00;99725.28;5014375;28;20078;-84
2021/12/09 02:22:39;;;;;;;13.02;2.50;;;;;;;1.47;100.00;99709.22;5025579;28;20067;-83
2021/12/09 02:25:05;;;;;;;8.70;1.85;;;;;;;1.64;100.00;99722.72;5014799;28;20123;-83
2021/12/09 02:27:31;;;;;;;8.70;2.25;;;;;;;1.43;100.00;99662.84;5030842;28;20060;-83
2021/12/09 02:29:57;;;;;;;8.48;1.80;;;;;;;1.62;100.00;99684.94;5014317;28;20112;-83
2021/12/09 02:32:22;;;;;;;13.93;2.20;;;;;;;1.58;100.00;99672.97;5047673;28;20119;-83
2021/12/09 02:34:48;;;;;;;10.50;3.08;;;;;;;1.62;100.00;99671.69;5050569;28;20029;-82
2021/12/09 02:37:14;;;;;;;13.57;2.60;;;;;;;1.64;100.00;99653.81;5047263;28;20483;-82
2021/12/09 02:39:41;;;;;;;16.58;3.33;;;;;;;1.58;100.00;99644.63;5013068;28;20056;-82
2021/12/09 02:42:07;;;;;;;17.88;3.90;;;;;;;1.59;100.00;99646.34;5042736;28;20021;-83
2021/12/09 02:44:32;;;;;;;20.65;5.10;;;;;;;1.56;100.00;99633.34;5013070;28;20060;-82
2021/12/09 02:46:58;;;;;;;10.27;3.65;;;;;;;1.50;100.00;99637.41;5031443;28;20036;-82
2021/12/09 02:49:26;;;;;;;19.90;5.30;;;;;;;1.40;100.00;99633.13;5031858;28;20075;-82
2021/12/09 02:51:53;;;;;;;14.63;3.08;;;;;;;1.37;100.00;99651.97;5021592;28;20039;-82
2021/12/09 02:54:20;;;;;;;16.70;2.20;;;;;;;1.17;100.00;99638.78;5016928;28;20036;-83
2021/12/09 02:56:47;;;;;;;18.48;3.50;;;;;;;1.26;100.00;99655.63;5025270;28;20041;-82
2021/12/09 02:59:13;;;;;;;11.23;2.33;;;;;;;1.21;100.00;99650.75;5016925;28;20037;-82
2021/12/09 03:01:54;;;;;;;8.48;2.33;;;;;;;1.09;100.00;99636.84;5007935;28;20137;-83
2021/12/09 03:04:20;;;;;;;9.13;1.63;;;;;;;1.17;100.00;99644.09;5042778;28;20115;-84
2021/12/09 03:06:48;;;;;;;24.73;2.47;;;;;;;1.30;100.00;99649.06;5037951;28;20045;-84
2021/12/09 03:09:18;;;;;;;6.90;1.63;;;;;;;1.43;100.00;99661.97;5021794;28;20041;-85
2021/12/09 03:11:48;;;;;;;11.93;2.22;;;;;;;1.27;100.00;99642.25;5028980;28;20180;-84
2021/12/09 03:14:13;;;;;;;9.25;2.05;;;;;;;1.46;100.00;99669.66;5011563;28;20101;-84
2021/12/09 03:16:39;;;;;;;7.32;1.90;;;;;;;1.39;100.00;99642.91;5029327;28;20123;-82
2021/12/09 03:19:07;;;;;;;9.93;1.63;;;;;;;1.60;100.00;99666.53;5034977;28;20130;-82
2021/12/09 03:21:38;;;;;;;9.25;1.55;;;;;;;1.67;100.00;99675.59;5028179;28;20124;-83
2021/12/09 03:24:08;;;;;;;6.18;1.58;;;;;;;1.61;100.00;99646.16;5028055;28;20058;-82
2021/12/09 03:26:40;;;;;;;11.68;1.90;;;;;;;1.79;100.00;99667.44;5046899;28;20108;-82
2021/12/09 03:29:09;;;;;;;6.28;1.65;;;;;;;1.85;100.00;99666.84;5008107;28;20048;-82
2021/12/09 03:31:39;;;;;;;10.10;1.85;;;;;;;1.84;100.00;99660.72;5023831;28;20044;-83
2021/12/09 03:34:06;;;;;;;12.38;2.05;;;;;;;1.93;100.00;99669.59;5031838;28;20537;-83
2021/12/09 03:36:31;;;;;;;11.13;1.75;;;;;;;1.91;100.00;99656.50;5028074;28;20668;-82
2021/12/09 03:38:59;;;;;;;16.42;2.20;;;;;;;1.95;100.00;99649.09;5035366;28;20115;-84
2021/12/09 03:41:24;;;;;;;8.82;2.15;;;;;;;1.92;100.00;99636.13;5028250;28;20033;-84
2021/12/09 03:43:50;;;;;;;13.10;2.90;;;;;;;1.90;100.00;99632.78;5020024;28;20043;-83
2021/12/09 03:46:16;;;;;;;13.82;2.00;;;;;;;1.98;100.00;99623.13;5011198;28;20037;-83
2021/12/09 03:48:42;;;;;;;10.40;2.17;;;;;;;2.02;100.00;99628.97;5055127;28;20040;-83
2021/12/09 03:51:07;;;;;;;6.43;1.67;;;;;;;1.98;100.00;99623.13;5012096;28;20491;-83
2021/12/09 03:53:33;;;;;;;17.00;2.63;;;;;;;2.03;100.00;99620.00;5009986;28;20379;-84
2021/12/09 03:55:59;;;;;;;7.57;1.98;;;;;;;1.93;100.00;99585.63;5011627;28;20071;-81
2021/12/09 03:58:25;;;;;;;12.77;2.35;;;;;;;2.11;100.00;99601.53;5035490;28;20035;-82
2021/12/09 04:00:51;;;;;;;9.45;1.70;;;;;;;2.23;100.00;99618.09;5015613;28;20029;-83
2021/12/09 04:03:18;;;;;;;10.00;1.80;;;;;;;2.24;100.00;99609.13;5026600;28;20129;-85
2021/12/09 04:05:46;;;;;;;8.23;1.90;;;;;;;2.32;100.00;99613.69;5022555;28;20038;-82
2021/12/09 04:08:12;;;;;;;10.10;2.22;;;;;;;2.15;100.00;99588.81;5034052;28;20386;-82
2021/12/09 04:10:38;;;;;;;12.10;1.92;;;;;;;2.26;100.00;99599.22;5040924;28;20029;-82
2021/12/09 04:13:04;;;;;;;14.45;2.13;;;;;;;2.41;100.00;99623.41;5032200;28;20469;-82
2021/12/09 04:15:30;;;;;;;7.55;2.40;;;;;;;2.30;100.00;99608.53;5047688;28;20029;-82
2021/12/09 04:17:56;;;;;;;10.40;2.25;;;;;;;2.40;100.00;99627.84;5013056;28;20384;-82
2021/12/09 04:20:21;;;;;;;8.25;1.83;;;;;;;2.14;100.00;99569.44;5006843;28;20032;-82
2021/12/09 04:22:51;;;;;;;16.30;3.38;;;;;;;2.53;100.00;99619.53;5036940;28;20033;-82
2021/12/09 04:25:21;;;;;;;15.48;3.20;;;;;;;2.46;100.00;99594.59;5027701;28;20100;-82
2021/12/09 04:27:47;;;;;;;13.45;3.13;;;;;;;2.61;100.00;99608.16;5003041;28;20037;-83
2021/12/09 04:30:15;;;;;;;16.52;2.92;;;;;;;2.64;100.00;99598.06;5010521;28;20076;-83
2021/12/09 04:32:41;;;;;;;11.82;3.58;;;;;;;2.50;100.00;99561.47;5055776;28;20104;-82
2021/12/09 04:35:09;;;;;;;17.83;2.92;;;;;;;2.51;100.00;99563.13;5044720;28;20032;-82
2021/12/09 04:37:38;;;;;;;14.63;2.85;;;;;;;2.62;100.00;99575.34;5017692;28;20139;-82
2021/12/09 04:40:09;;;;;;;24.08;3.65;;;;;;;2.59;100.00;99572.97;5034069;28;20028;-82
2021/12/09 04:42:35;;;;;;;18.77;3.40;;;;;;;2.46;100.00;99568.06;5032973;28;20064;-81
2021/12/09 04:45:01;;;;;;;15.32;2.70;;;;;;;2.41;100.00;99565.88;5035744;28;20129;-82
2021/12/09 04:47:26;;;;;;;13.13;2.47;;;;;;;2.44;100.00;99575.34;5017002;28;20056;-82
2021/12/09 04:49:52;;;;;;;12.70;3.35;;;;;;;2.44;100.00;99578.00;5055771;28;20028;-82
2021/12/09 04:52:18;;;;;;;10.63;2.72;;;;;;;2.29;100.00;99540.56;5047105;28;20471;-82
2021/12/09 04:54:43;;;;;;;10.45;2.17;;;;;;;2.52;100.00;99570.09;5032598;28;20025;-82
2021/12/09 04:57:10;;;;;;;8.80;2.17;;;;;;;2.59;100.00;99576.47;5048532;28;20039;-83
2021/12/09 04:59:36;;;;;;;3.80;1.73;;;;;;;2.63;100.00;99564.53;5028818;28;20030;-83
2021/12/09 05:02:02;;;;;;;6.18;2.15;;;;;;;2.66;100.00;99557.28;5010974;28;20048;-82
2021/12/09 05:04:28;;;;;;;15.30;2.80;;;;;;;2.61;100.00;99542.63;5031511;28;20104;-83
2021/12/09 05:06:55;;;;;;;10.00;2.03;;;;;;;2.67;100.00;99558.94;5045472;28;20108;-82
2021/12/09 05:09:21;;;;;;;6.50;1.88;;;;;;;2.41;100.00;99504.84;5016430;28;20056;-83
2021/12/09 05:14:20;;;;;;;10.55;1.95;;;;;;;2.85;100.00;99541.13;5049386;28;20087;-83
2021/12/09 05:16:53;;;;;;;12.80;2.25;;;;;;;2.95;100.00;99539.22;5032211;28;20033;-82
2021/12/09 05:19:20;;;;;;;10.50;1.92;;;;;;;3.11;100.00;99527.03;5012246;28;20033;-82
2021/12/09 05:21:46;;;;;;;13.40;1.98;;;;;;;3.13;100.00;99522.41;5021260;28;20810;-82
2021/12/09 05:24:13;;;;;;;7.95;1.52;;;;;;;3.30;100.00;99524.13;5022782;28;20033;-82
2021/12/09 05:26:46;;;;;;;14.30;1.77;;;;;;;3.38;100.00;99505.56;5023985;28;20116;-82
2021/12/09 05:29:14;;;;;;;8.52;1.98;;;;;;;3.23;100.00;99473.47;5026129;28;20450;-82
2021/12/09 05:34:25;;;;;;;16.38;3.00;;;;;;;3.59;100.00;99512.28;5018737;28;20334;-81
2021/12/09 05:36:51;;;;;;;8.02;1.38;;;;;;;3.63;100.00;99514.47;5031468;28;20036;-82
2021/12/09 05:39:20;;;;;;;10.23;1.83;;;;;;;3.48;100.00;99482.34;5030159;28;20049;-81
2021/12/09 05:41:46;;;;;;;10.60;2.28;;;;;;;3.67;100.00;99505.16;5047226;28;20486;-82
2021/12/09 05:44:13;;;;;;;3.03;0.90;;;;;;;3.70;100.00;99498.69;5010607;28;20114;-83
2021/12/09 05:46:45;;;;;;;6.40;1.45;;;;;;;3.77;100.00;99502.38;5009468;28;20605;-82
2021/12/09 05:49:12;;;;;;;3.60;1.20;;;;;;;3.70;100.00;99482.72;5040292;28;20090;-82
2021/12/09 05:51:39;;;;;;;4.85;1.55;;;;;;;3.61;100.00;99465.13;5029937;28;20022;-82
2021/12/09 05:54:05;;;;;;;13.35;2.13;;;;;;;3.84;100.00;99494.59;5013552;28;20471;-81
2021/12/09 05:56:31;;;;;;;6.75;1.30;;;;;;;3.86;100.00;99492.56;5061182;28;20094;-82
2021/12/09 05:58:56;;;;;;;7.65;1.38;;;;;;;3.88;100.00;99494.06;5042407;28;20033;-84
2021/12/09 06:01:22;;;;;;;7.13;2.47;;;;;;;3.84;100.00;99468.81;5015082;28;20032;-82
2021/12/09 06:03:48;;;;;;;7.88;1.75;;;;;;;3.86;100.00;99473.94;5031433;28;20427;-81
2021/12/09 06:06:14;;;;;;;12.73;2.42;;;;;;;4.03;100.00;99488.13;5014117;28;20032;-83
2021/12/09 06:08:40;;;;;;;9.38;2.13;;;;;;;4.06;100.00;99488.63;5018131;28;20064;-82
2021/12/09 06:11:08;;;;;;;19.02;4.40;;;;;;;4.07;100.00;99484.94;5018095;28;20040;-81
2021/12/09 06:13:36;;;;;;;21.20;5.13;;;;;;;3.99;100.00;99457.50;5018995;28;20041;-82
2021/12/09 06:16:03;;;;;;;13.55;5.13;;;;;;;4.04;100.00;99437.41;5025518;28;20052;-82
2021/12/09 06:18:29;;;;;;;9.93;4.93;;;;;;;4.19;100.00;99451.72;5012557;28;20068;-82
2021/12/09 06:20:55;;;;;;;14.90;4.88;;;;;;;4.19;100.00;99440.25;5030949;28;20478;-82
2021/12/09 06:23:21;;;;;;;13.38;5.60;;;;;;;4.24;100.00;99448.56;5026748;28;20044;-84
2021/12/09 06:25:47;;;;;;;13.02;2.22;;;;;;;4.08;100.00;99421.97;5031888;28;20041;-82
2021/12/09 06:28:12;;;;;;;8.68;2.10;;;;;;;4.31;100.00;99446.91;5048322;28;20501;-81
2021/12/09 06:30:38;;;;;;;9.95;2.58;;;;;;;4.01;100.00;99407.66;5041959;28;20030;-82
2021/12/09 06:33:05;;;;;;;13.43;1.98;;;;;;;4.07;100.00;99437.06;5020957;28;20048;-83
2021/12/09 06:35:32;;;;;;;11.85;2.10;;;;;;;3.99;100.00;99438.91;5014753;28;20028;-82
2021/12/09 06:37:59;;;;;;;4.38;1.80;;;;;;;3.93;100.00;99427.94;5025484;28;20060;-82
2021/12/09 06:40:26;;;;;;;12.52;2.13;;;;;;;3.79;100.00;99417.13;5015540;28;20773;-82
2021/12/09 06:42:52;;;;;;;15.50;2.75;;;;;;;3.80;100.00;99427.59;5044402;28;20371;-82
2021/12/09 06:45:20;;;;;;;7.93;2.03;;;;;;;3.72;100.00;99414.28;5029893;28;20049;-83
2021/12/09 06:47:46;;;;;;;8.63;3.38;;;;;;;3.64;100.00;99414.28;5051294;28;20136;-83
2021/12/09 06:50:14;;;;;;;7.55;1.98;;;;;;;3.40;100.00;99376.03;5012590;28;20029;-83
2021/12/09 06:52:40;;;;;;;11.70;2.92;;;;;;;3.63;100.00;99413.47;5026749;28;20033;-82
2021/12/09 06:55:09;;;;;;;15.50;3.00;;;;;;;3.59;100.00;99412.09;5024727;28;20032;-82
2021/12/09 06:57:36;;;;;;;8.00;2.33;;;;;;;3.52;100.00;99414.59;5021818;28;20149;-84
2021/12/09 07:00:05;;;;;;;9.80;2.65;;;;;;;3.45;100.00;99399.47;5018598;28;20110;-82
2021/12/09 07:02:30;;;;;;;9.52;2.45;;;;;;;3.51;100.00;99404.13;5033325;28;20384;-82
2021/12/09 07:04:59;;;;;;;10.93;2.55;;;;;;;3.47;100.00;99392.19;5030302;28;20110;-82
2021/12/09 07:07:25;;;;;;;6.93;2.38;;;;;;;3.41;100.00;99376.88;5012726;28;20091;-82
2021/12/09 07:09:50;;;;;;;13.02;2.80;;;;;;;3.45;100.00;99394.16;5049904;28;20025;-82
2021/12/09 07:12:19;;;;;;;8.55;2.38;;;;;;;3.49;100.00;99396.34;5043060;28;20037;-82
2021/12/09 07:14:45;;;;;;;4.78;2.35;;;;;;;3.33;100.00;99364.41;5009015;28;20044;-82
2021/12/09 07:17:11;;;;;;;12.15;3.08;;;;;;;3.48;100.00;99375.22;5021521;28;20124;-84
2021/12/09 07:19:38;;;;;;;8.68;3.08;;;;;;;3.42;100.00;99360.78;5051189;28;20033;-82
2021/12/09 07:22:04;;;;;;;9.60;3.03;;;;;;;3.53;100.00;99373.72;5038369;28;20033;-82
2021/12/09 07:24:30;;;;;;;7.93;2.78;;;;;;;3.55;100.00;99372.72;5012071;28;20494;-82
2021/12/09 07:26:57;;;;;;;15.07;3.67;;;;;;;3.41;100.00;99329.84;5036013;28;20068;-84
2021/12/09 07:29:24;;;;;;;10.77;3.25;;;;;;;3.52;100.00;99345.50;5039016;28;20021;-82
2021/12/09 07:31:50;;;;;;;10.82;2.53;;;;;;;3.46;100.00;99319.56;5049076;28;20056;-81
2021/12/09 07:34:16;;;;;;;13.10;2.78;;;;;;;3.50;100.00;99317.44;5012562;28;20418;-82
2021/12/09 07:36:42;;;;;;;17.45;3.17;;;;;;;3.61;100.00;99329.56;5039134;28;20025;-82
2021/12/09 07:39:09;;;;;;;6.65;2.15;;;;;;;3.63;100.00;99330.22;5049087;28;20048;-81
2021/12/09 07:41:34;;;;;;;8.80;2.55;;;;;;;3.58;100.00;99308.63;5044679;28;20112;-82
2021/12/09 07:44:05;;;;;;;7.65;2.13;;;;;;;3.61;100.00;99300.31;5039023;28;20028;-82
2021/12/09 07:46:32;;;;;;;8.50;2.40;;;;;;;3.67;100.00;99312.94;5041174;28;20099;-82
2021/12/09 07:48:58;;;;;;;11.98;3.60;;;;;;;3.73;100.00;99313.13;5019222;28;20037;-84
2021/12/09 07:51:25;;;;;;;8.75;2.83;;;;;;;3.70;100.00;99296.66;5040064;28;20076;-81
2021/12/09 07:53:51;;;;;;;14.05;4.05;;;;;;;3.69;100.00;99276.41;5045921;28;20059;-82
2021/12/09 07:56:17;;;;;;;22.50;3.50;;;;;;;3.86;100.00;99288.66;5038463;28;20128;-82
2021/12/09 07:58:42;;;;;;;10.20;2.72;;;;;;;3.95;100.00;99289.47;5051664;28;20116;-80
2021/12/09 08:01:08;;;;;;;3.85;1.65;;;;;;;4.08;100.00;99284.47;5019476;28;20064;-81
2021/12/09 08:03:34;;;;;;;4.70;1.92;;;;;;;4.18;100.00;99290.44;5050988;28;20059;-80
2021/12/09 08:06:00;;;;;;;1.95;1.75;;;;;;;4.22;100.00;99277.59;5019103;28;20044;-82
2021/12/09 08:08:26;;;;;;;3.17;1.60;;;;;;;4.21;100.00;99267.13;5013398;28;20045;-82
2021/12/09 08:10:52;;;;;;;3.78;1.13;;;;;;;4.31;100.00;99273.94;5022797;28;20024;-80
2021/12/09 08:13:18;;;;;;;3.00;1.48;;;;;;;4.35;100.00;99261.09;5014307;28;20565;-81
2021/12/09 08:15:49;;;;;;;1.38;0.75;;;;;;;4.37;100.00;99259.94;5034983;28;20034;-81
2021/12/09 08:20:48;;;;;;;0.47;0.47;;;;;;;4.29;100.00;99238.69;5043271;28;20059;-80
2021/12/09 08:23:14;;;;;;;0.90;0.90;;;;;;;4.33;100.00;99247.13;5041369;28;20025;-81
2021/12/09 08:25:41;;;;;;;0.98;0.98;;;;;;;4.31;100.00;99241.16;5040656;28;20043;-80
2021/12/09 08:28:06;;;;;;;0.32;0.32;;;;;;;4.22;100.00;99227.06;5036461;28;20029;-80
2021/12/09 08:30:33;;;;;;;0.65;0.65;;;;;;;4.30;100.00;99239.50;5008795;28;20491;-80
2021/12/09 08:32:59;;;;;;;0.40;0.40;;;;;;;4.25;100.00;99221.38;5012824;28;20064;-80
2021/12/09 08:35:25;;;;;;;1.98;1.00;;;;;;;4.34;100.00;99235.47;5011774;28;20068;-80
2021/12/09 08:37:51;;;;;;;0.40;0.40;;;;;;;4.25;100.00;99228.53;5013443;28;20040;-80
2021/12/09 08:40:17;;;;;;;0.40;0.40;;;;;;;4.27;100.00;99231.88;5009359;28;20041;-80
2021/12/09 08:42:43;;;;;;;3.03;1.02;;;;;;;4.21;100.00;99213.91;5025694;28;20438;-80
2021/12/09 08:45:12;;;;;;;4.00;1.92;;;;;;;4.28;100.00;99228.19;5006400;28;20065;-80
2021/12/09 08:47:40;;;;;;;1.42;1.38;;;;;;;4.26;100.00;99223.06;5009856;28;20041;-81
2021/12/09 08:50:08;;;;;;;4.57;1.85;;;;;;;4.24;100.00;99214.41;5007416;28;20043;-80
2021/12/09 08:52:34;;;;;;;1.60;1.50;;;;;;;4.22;100.00;99195.13;5009075;28;20047;-82
2021/12/09 08:55:01;;;;;;;0.70;0.70;;;;;;;4.33;100.00;99210.69;5001686;28;20038;-80
2021/12/09 08:57:27;;;;;;;0.40;0.40;;;;;;;4.36;100.00;99207.69;5042896;28;20392;-80
2021/12/09 08:59:52;;;;;;;0.40;0.40;;;;;;;4.39;100.00;99196.72;5037813;28;20056;-80
2021/12/09 09:02:19;;;;;;;1.65;0.95;;;;;;;4.35;100.00;99183.94;5043968;28;20032;-81
2021/12/09 09:04:45;;;;;;;1.05;1.05;;;;;;;4.46;100.00;99185.38;5031594;28;20037;-80
2021/12/09 09:07:11;;;;;;;0.50;0.50;;;;;;;4.48;100.00;99188.69;5026424;28;20041;-80
2021/12/09 09:09:38;;;;;;;0.65;0.65;;;;;;;4.62;100.00;99194.06;5027728;28;20032;-80
2021/12/09 09:12:06;;;;;;;0.45;0.45;;;;;;;4.74;100.00;99181.22;5028643;28;20225;-80
2021/12/09 09:14:35;;;;;;;0.70;0.70;;;;;;;4.92;100.00;99174.75;5019721;28;20055;-80
2021/12/09 09:17:13;;;;;;;0.47;0.47;;;;;;;5.02;100.00;99156.69;5025492;28;20087;-80
2021/12/09 09:19:39;;;;;;;0.40;0.40;;;;;;;5.16;100.00;99160.38;5036880;28;20414;-80
2021/12/09 09:22:05;;;;;;;0.40;0.40;;;;;;;5.22;100.00;99171.16;5022391;28;20037;-81
2021/12/09 09:24:31;;;;;;;0.40;0.40;;;;;;;5.20;100.00;99151.88;5044667;28;20052;-81
2021/12/09 09:26:57;;;;;;;0.40;0.40;;;;;;;5.29;100.00;99160.59;5012541;28;20041;-80
2021/12/09 09:29:25;;;;;;;0.60;0.60;;;;;;;5.38;100.00;99142.72;5041265;28;20368;-80
2021/12/09 09:31:52;;;;;;;1.38;1.38;;;;;;;5.58;100.00;99154.47;5015214;28;20368;-80
2021/12/09 09:34:17;;;;;;;1.00;1.00;;;;;;;5.71;100.00;99151.19;5013409;28;20426;-80
2021/12/09 09:36:44;;;;;;;0.43;0.43;;;;;;;5.94;100.00;99175.97;5024396;28;20087;-80
2021/12/09 09:39:21;;;;;;;0.40;0.40;;;;;;;5.92;100.00;99137.94;5042001;28;20029;-80
2021/12/09 09:42:16;;;;;;;0.47;0.47;;;;;;;6.15;100.00;99155.69;5015950;28;20040;-80
2021/12/09 09:44:54;;;;;;;0.40;0.40;;;;;;;6.46;100.00;99141.28;5038959;28;20036;-81
2021/12/09 09:47:21;;;;;;;0.43;0.43;;;;;;;6.61;100.00;99144.72;5029336;28;20049;-80
2021/12/09 09:49:47;;;;;;;0.43;0.43;;;;;;;6.76;100.00;99148.16;5045453;28;20045;-80
2021/12/09 09:52:12;;;;;;;0.40;0.40;;;;;;;6.87;100.00;99148.66;5028413;28;20093;-81
2021/12/09 09:54:40;;;;;;;0.60;0.60;;;;;;;6.97;100.00;99144.66;5049529;28;20445;-81
2021/12/09 09:57:07;;;;;;;0.40;0.40;;;;;;;7.06;100.00;99142.66;5045792;28;20098;-81
2021/12/09 09:59:33;;;;;;;0.40;0.40;;;;;;;7.25;100.00;99119.78;5009514;28;20475;-80
2021/12/09 10:01:59;;;;;;;1.55;1.25;;;;;;;8.00;100.00;99139.59;5027027;28;20093;-81
2021/12/09 10:04:32;;;;;;;0.40;0.40;;;;;;;8.09;100.00;99130.34;5022091;28;20041;-81
2021/12/09 10:06:59;;;;;;;0.50;0.50;;;;;;;8.02;100.00;99137.56;5037658;28;20037;-80
2021/12/09 10:09:25;;;;;;;0.93;0.93;;;;;;;8.13;100.00;99128.94;5036462;28;20044;-82
2021/12/09 10:11:51;;;;;;;0.50;0.50;;;;;;;8.20;100.00;99136.97;5053687;28;20033;-81
2021/12/09 10:14:23;;;;;;;0.60;0.60;;;;;;;8.26;100.00;99125.50;5044364;28;20048;-81
2021/12/09 10:17:08;;;;;;;1.00;0.88;;;;;;;7.95;100.00;99128.66;5022740;28;20041;-82
2021/12/09 10:19:58;;;;;;;0.40;0.40;;;;;;;7.82;100.00;99116.03;5031223;28;20443;-81
2021/12/09 10:22:28;;;;;;;0.60;0.60;;;;;;;7.72;100.00;99105.69;5006978;28;20045;-81
2021/12/09 10:24:58;;;;;;;0.40;0.40;;;;;;;7.81;100.00;99113.56;5031211;28;20049;-80
2021/12/09 10:27:32;;;;;;;0.40;0.40;;;;;;;7.67;100.00;99075.19;5051149;28;20037;-81
2021/12/09 10:30:03;;;;;;;0.40;0.40;;;;;;;7.97;100.00;99101.72;5033738;28;20486;-81
2021/12/09 10:32:33;;;;;;;0.40;0.40;;;;;;;8.09;100.00;99102.75;5050449;28;20043;-83
2021/12/09 10:35:12;;;;;;;;;;;;;;;8.35;100.00;99100.16;5034547;28;20037;-81
2021/12/09 10:37:43;;;;;;;0.93;0.73;;;;;;;8.45;100.00;99094.47;5018578;28;20397;-81
2021/12/09 10:40:21;;;;;;;0.88;0.88;;;;;;;8.42;100.00;99094.06;5017724;28;20028;-81
2021/12/09 10:42:48;;;;;;;1.25;0.75;;;;;;;8.34;100.00;99090.50;5051379;28;20036;-81
2021/12/09 10:45:33;;;;;;;0.38;0.38;;;;;;;8.31;100.00;99096.25;5050460;28;20059;-82
2021/12/09 10:48:03;;;;;;;0.35;0.35;;;;;;;8.30;100.00;99085.75;5020898;28;20064;-81
2021/12/09 10:56:09;;;;;;;0.40;0.40;;;;;;;8.61;100.00;99063.78;5033692;28;20471;-81
2021/12/09 10:58:41;;;;;;;0.60;0.60;;;;;;;8.91;100.00;99066.06;5015967;28;20064;-82
2021/12/09 11:01:12;;;;;;;0.38;0.38;;;;;;;9.06;100.00;99063.19;5029225;28;20037;-81
2021/12/09 11:03:40;;;;;;;0.60;0.60;;;;;;;9.21;100.00;99067.28;5024982;28;20136;-81
2021/12/09 11:06:11;;;;;;;0.40;0.40;;;;;;;9.28;100.00;99051.19;5033273;28;20037;-81
2021/12/09 11:08:59;;;;;;;4.78;1.58;;;;;;;9.64;100.00;99049.84;5031062;28;20033;-82
2021/12/09 11:11:26;;;;;;;0.40;0.40;;;;;;;9.99;100.00;99039.59;5042546;28;20029;-81
2021/12/09 11:14:00;;;;;;;0.63;0.63;;;;;;;10.25;100.00;99029.75;5047986;28;20032;-84
2021/12/09 11:16:30;;;;;;;7.97;0.95;;;;;;;10.47;100.00;99036.44;5042733;28;20029;-83
2021/12/09 11:19:24;;;;;;;1.20;0.50;;;;;;;10.50;100.00;99041.38;5046513;28;20467;-82
2021/12/09 11:21:57;;;;;;;4.82;1.42;;;;;;;10.63;100.00;99045.03;5030064;28;20029;-86
2021/12/09 11:24:27;;;;;;;0.83;0.40;;;;;;;10.64;100.00;99028.69;5032150;28;20489;-84
2021/12/09 11:29:38;;;;;;;0.40;0.40;;;;;;;10.60;100.00;99010.53;5027819;28;20037;-84
2021/12/09 11:32:20;;;;;;;0.50;0.50;;;;;;;10.68;100.00;99012.94;5031940;28;20391;-85
2021/12/09 11:35:05;;;;;;;3.13;1.52;;;;;;;10.56;100.00;99020.91;5045155;28;20476;-84
2021/12/09 11:39:58;;;;;;;3.45;1.52;;;;;;;10.83;100.00;99016.13;5038655;28;20605;-83
2021/12/09 11:42:32;;;;;;;3.03;0.90;;;;;;;11.53;100.00;99020.38;5036981;28;20036;-84
2021/12/09 11:45:00;;;;;;;8.02;1.40;;;;;;;11.79;97.41;99013.88;5028456;28;20041;-82
2021/12/09 11:47:26;;;;;;;1.25;1.10;;;;;;;11.88;96.07;99007.13;5031754;28;20048;-83
2021/12/09 11:49:53;;;;;;;10.63;1.42;;;;;;;11.88;95.04;98982.91;5028736;28;20439;-83
2021/12/09 11:52:21;;;;;;;0.68;0.68;;;;;;;11.32;97.31;98998.25;5046379;28;20060;-82